Time;durP1;ratioP1;P1;durP2;ratioP2;P2;SDS_P1;SDS_P2;PMS_P1;PMS_P2;Temp;Humidity;BMP_temperature;BMP_pressure;BME280_temperature;BME280_humidity;BME280_pressure;Samples;Min_cycle;Max_cycle;Signal;HPM_P1;HPM_P2
2023/10/13 00:01:13;;;;;;;75.95;30.83;;;16.20;99.90;;;;;;4882140;29;20052;-89
2023/10/13 00:03:39;;;;;;;69.63;30.05;;;16.90;99.90;;;;;;4880931;29;20051;-88
2023/10/13 00:06:06;;;;;;;69.07;28.85;;;16.80;99.90;;;;;;4881221;29;20056;-89
2023/10/13 00:08:39;;;;;;;61.95;29.75;;;16.20;99.90;;;;;;4896074;29;20044;-88
2023/10/13 00:11:05;;;;;;;64.32;29.27;;;16.20;99.90;;;;;;4900182;29;20062;-89
2023/10/13 00:13:50;;;;;;;63.50;28.40;;;16.60;99.90;;;;;;4899429;29;20088;-88
2023/10/13 00:16:21;;;;;;;68.18;27.50;;;16.70;99.90;;;;;;4900023;29;20079;-88
2023/10/13 00:18:59;;;;;;;66.55;27.15;;;17.10;99.90;;;;;;4918700;23;20500;-89
2023/10/13 00:24:14;;;;;;;57.90;27.48;;;16.20;99.90;;;;;;4930480;29;20048;-89
2023/10/13 00:26:55;;;;;;;63.53;28.88;;;16.20;99.90;;;;;;4927737;29;20053;-88
2023/10/13 00:29:28;;;;;;;61.35;27.70;;;17.00;99.90;;;;;;4901345;29;20052;-88
2023/10/13 00:32:12;;;;;;;;;;;16.20;99.90;;;;;;4935457;29;20099;-89
2023/10/13 00:34:38;;;;;;;60.85;26.60;;;16.80;99.90;;;;;;4933360;29;19923;-88
2023/10/13 00:37:18;;;;;;;62.28;27.75;;;16.50;99.90;;;;;;4934261;29;20046;-89
2023/10/13 00:39:45;;;;;;;57.58;26.75;;;17.10;99.90;;;;;;4931242;29;20036;-88
2023/10/13 00:42:50;;;;;;;60.45;27.52;;;16.70;99.90;;;;;;4914648;29;20056;-88
2023/10/13 00:45:42;;;;;;;58.72;28.38;;;16.40;99.90;;;;;;4915167;29;20052;-89
2023/10/13 00:48:10;;;;;;;60.53;26.75;;;16.40;99.90;;;;;;4900879;29;20131;-88
2023/10/13 00:50:51;;;;;;;55.67;27.55;;;16.30;99.90;;;;;;4909370;29;20052;-89
2023/10/13 00:53:17;;;;;;;57.20;27.38;;;16.50;99.90;;;;;;4900092;29;20048;-89
2023/10/13 00:55:43;;;;;;;58.30;28.48;;;16.40;99.90;;;;;;4911988;29;20066;-88
2023/10/13 00:58:23;;;;;;;56.50;27.13;;;17.30;99.90;;;;;;4900136;29;20188;-89
2023/10/13 01:03:38;;;;;;;55.75;27.10;;;17.50;99.90;;;;;;4914800;29;20067;-88
2023/10/13 01:06:03;;;;;;;54.63;26.92;;;16.50;99.90;;;;;;4910491;29;20052;-88
2023/10/13 01:08:51;;;;;;;53.30;26.02;;;16.30;99.90;;;;;;4914876;29;20440;-88
2023/10/13 01:11:23;;;;;;;53.78;25.80;;;16.30;99.90;;;;;;4911729;29;20074;-88
2023/10/13 01:14:11;;;;;;;56.92;26.95;;;16.40;99.90;;;;;;4899448;29;20052;-89
2023/10/13 01:16:43;;;;;;;55.00;26.73;;;16.40;99.90;;;;;;4913427;29;20069;-89
2023/10/13 01:19:58;;;;;;;51.30;25.88;;;16.30;99.90;;;;;;4914746;29;20060;-88
2023/10/13 01:22:24;;;;;;;52.58;26.30;;;16.40;99.90;;;;;;4899067;29;20087;-88
2023/10/13 01:24:51;;;;;;;53.00;25.92;;;16.30;99.90;;;;;;4914350;29;20078;-88
2023/10/13 01:27:29;;;;;;;52.10;26.15;;;16.40;99.90;;;;;;4899567;29;20058;-88
2023/10/13 01:30:22;;;;;;;55.33;25.73;;;16.50;99.90;;;;;;4898733;29;20066;-87
2023/10/13 01:33:00;;;;;;;53.33;26.13;;;16.30;99.90;;;;;;4899435;29;20134;-88
2023/10/13 01:35:42;;;;;;;51.78;25.48;;;16.40;99.90;;;;;;4899249;29;20052;-89
2023/10/13 01:38:27;;;;;;;49.80;25.02;;;16.10;99.90;;;;;;4928679;23;20077;-88
2023/10/13 01:40:52;;;;;;;43.70;24.88;;;16.30;99.90;;;;;;4918146;29;20174;-88
2023/10/13 01:43:23;;;;;;;51.67;24.13;;;16.40;99.90;;;;;;4918108;29;20138;-88
2023/10/13 01:46:04;;;;;;;47.67;24.42;;;16.30;99.90;;;;;;4917350;29;20499;-88
2023/10/13 01:48:54;;;;;;;47.78;23.42;;;16.60;99.90;;;;;;4917683;29;20051;-88
2023/10/13 01:51:27;;;;;;;45.08;23.48;;;16.40;99.90;;;;;;4917308;29;20051;-88
2023/10/13 01:54:11;;;;;;;44.20;22.33;;;16.30;99.90;;;;;;4950597;29;20056;-89
2023/10/13 01:56:48;;;;;;;45.22;23.38;;;16.30;99.90;;;;;;4950302;28;20131;-88
2023/10/13 01:59:26;;;;;;;44.78;22.85;;;16.30;99.90;;;;;;4916877;29;20103;-88
2023/10/13 02:01:56;;;;;;;44.30;21.95;;;17.10;99.90;;;;;;4917884;29;20043;-88
2023/10/13 02:05:02;;;;;;;46.15;21.50;;;16.30;99.90;;;;;;4917153;29;20102;-88
2023/10/13 02:07:29;;;;;;;40.83;20.98;;;16.30;99.90;;;;;;4917763;29;20064;-88
2023/10/13 02:10:11;;;;;;;44.03;21.85;;;16.30;99.90;;;;;;4918640;29;20039;-88
2023/10/13 02:13:15;;;;;;;41.08;20.40;;;17.20;99.90;;;;;;4935400;29;20055;-88
2023/10/13 02:15:42;;;;;;;37.83;20.05;;;16.30;99.90;;;;;;4922095;29;20051;-88
2023/10/13 02:18:41;;;;;;;40.63;19.50;;;16.30;99.90;;;;;;4921269;29;20102;-88
2023/10/13 02:21:13;;;;;;;39.50;20.13;;;17.10;99.90;;;;;;4937053;29;20059;-88
2023/10/13 02:23:45;;;;;;;41.30;20.63;;;17.10;99.90;;;;;;4953692;29;20040;-88
2023/10/13 02:26:32;;;;;;;39.25;20.20;;;16.60;99.90;;;;;;4953188;28;20169;-88
2023/10/13 02:29:17;;;;;;;;;;;;;;;;;;;;;
2023/10/13 02:32:04;;;;;;;38.90;20.38;;;16.60;99.90;;;;;;4921431;29;20055;-88
2023/10/13 02:34:32;;;;;;;41.70;20.42;;;16.30;99.90;;;;;;4923690;29;20058;-89
2023/10/13 02:37:55;;;;;;;38.65;20.63;;;16.30;99.90;;;;;;4921596;29;20185;-88
2023/10/13 02:41:37;;;;;;;40.28;20.83;;;16.30;99.90;;;;;;4937085;29;20079;-88
2023/10/13 02:44:32;;;;;;;45.30;22.80;;;16.20;99.90;;;;;;4922332;29;20199;-88
2023/10/13 02:47:19;;;;;;;51.80;30.98;;;16.30;99.90;;;;;;4926495;29;20155;-89
2023/10/13 02:50:11;;;;;;;37.85;20.15;;;17.00;99.90;;;;;;4928567;29;20054;-88
2023/10/13 02:52:41;;;;;;;37.88;20.50;;;16.30;99.90;;;;;;4919306;29;20126;-88
2023/10/13 02:55:10;;;;;;;38.10;19.77;;;16.30;99.90;;;;;;4902825;29;20057;-88
2023/10/13 02:57:57;;;;;;;38.00;21.70;;;16.30;99.90;;;;;;4920743;29;20056;-89
2023/10/13 03:00:31;;;;;;;37.70;22.08;;;16.60;99.90;;;;;;4920270;29;20471;-87
2023/10/13 03:05:46;;;;;;;34.40;20.27;;;16.30;99.90;;;;;;4921068;29;20052;-88
2023/10/13 03:08:17;;;;;;;36.15;18.88;;;16.70;99.90;;;;;;4919784;29;20050;-88
2023/10/13 03:10:57;;;;;;;38.88;23.50;;;16.40;99.90;;;;;;4920951;29;20055;-88
2023/10/13 03:13:26;;;;;;;35.15;19.20;;;16.40;99.90;;;;;;4937101;29;20084;-88
2023/10/13 03:15:54;;;;;;;42.55;28.05;;;17.20;99.90;;;;;;4920073;29;20534;-88
2023/10/13 03:18:34;;;;;;;36.67;20.38;;;17.00;99.90;;;;;;4920407;29;20050;-88
2023/10/13 03:21:28;;;;;;;40.25;22.08;;;16.40;99.90;;;;;;4952876;28;20047;-88
2023/10/13 03:24:07;;;;;;;36.60;22.15;;;16.30;99.90;;;;;;4919629;29;20495;-88
2023/10/13 03:26:37;;;;;;;47.42;29.52;;;16.90;99.90;;;;;;4920414;29;20241;-88
2023/10/13 03:29:07;;;;;;;36.33;19.85;;;16.30;99.90;;;;;;4937243;29;20087;-87
2023/10/13 03:31:45;;;;;;;45.75;27.83;;;16.40;99.90;;;;;;4919900;29;20050;-87
2023/10/13 03:34:12;;;;;;;40.70;21.70;;;16.30;99.90;;;;;;4919915;29;20048;-88
2023/10/13 03:39:29;;;;;;;43.00;24.63;;;16.50;99.90;;;;;;4935914;29;20048;-88
2023/10/13 03:44:46;;;;;;;41.47;22.20;;;16.70;99.90;;;;;;4919236;29;20052;-87
2023/10/13 03:47:26;;;;;;;36.95;19.75;;;16.30;99.90;;;;;;4921401;29;20060;-88
2023/10/13 03:50:14;;;;;;;33.28;18.92;;;16.30;99.90;;;;;;4920444;29;20055;-88
2023/10/13 03:52:39;;;;;;;53.13;34.53;;;16.70;99.90;;;;;;4954565;29;20477;-87
2023/10/13 03:55:06;;;;;;;38.00;21.25;;;16.60;99.90;;;;;;4940770;29;20122;-88
2023/10/13 03:57:38;;;;;;;40.00;22.95;;;16.30;99.90;;;;;;4937658;29;20050;-88
2023/10/13 04:00:21;;;;;;;35.92;19.13;;;16.30;99.90;;;;;;4938925;29;20102;-88
2023/10/13 04:02:52;;;;;;;41.15;22.02;;;16.30;99.90;;;;;;4916898;29;20040;-87
2023/10/13 04:05:35;;;;;;;33.80;18.10;;;16.30;99.90;;;;;;4917831;29;20051;-88
2023/10/13 04:19:19;;;;;;;40.63;22.55;;;17.10;99.90;;;;;;4934690;29;20055;-88
2023/10/13 04:21:55;;;;;;;38.67;17.95;;;16.60;99.90;;;;;;4921846;29;20056;-88
2023/10/13 04:25:00;;;;;;;37.25;20.00;;;16.20;99.90;;;;;;4920325;29;20051;-89
2023/10/13 04:27:44;;;;;;;44.97;23.77;;;16.50;99.90;;;;;;4920129;29;20111;-88
2023/10/13 04:30:10;;;;;;;36.45;18.23;;;16.40;99.90;;;;;;4938641;29;20284;-88
2023/10/13 04:32:46;;;;;;;35.50;17.80;;;16.20;99.90;;;;;;4918452;29;20051;-88
2023/10/13 04:35:35;;;;;;;38.05;17.60;;;16.90;99.90;;;;;;4919002;29;20488;-88
2023/10/13 04:38:34;;;;;;;34.47;17.17;;;16.20;99.90;;;;;;4919378;29;20063;-87
2023/10/13 04:41:01;;;;;;;35.22;17.40;;;16.10;99.90;;;;;;4950479;29;20143;-87
2023/10/13 04:43:33;;;;;;;34.65;16.98;;;16.20;99.90;;;;;;4918892;29;20098;-88
2023/10/13 04:46:14;;;;;;;33.13;16.58;;;16.20;99.90;;;;;;4919678;29;20047;-88
2023/10/13 04:48:47;;;;;;;36.53;18.02;;;16.60;99.90;;;;;;4918772;29;20040;-89
2023/10/13 04:51:34;;;;;;;38.37;17.13;;;16.20;99.90;;;;;;4950116;28;20102;-88
2023/10/13 04:54:02;;;;;;;37.78;17.77;;;17.00;99.90;;;;;;4935703;29;20370;-88
2023/10/13 04:59:35;;;;;;;36.78;16.60;;;16.20;99.90;;;;;;4890660;29;20051;-90
2023/10/13 05:47:46;;;;;;;29.15;14.30;;;16.00;99.90;;;;;;4891235;23;20583;-88
2023/10/13 06:30:06;;;;;;;;;;;16.00;99.90;;;;;;4918270;29;20056;-83
2023/10/13 06:32:33;;;;;;;19.63;9.40;;;16.00;99.90;;;;;;4901038;29;19926;-83
2023/10/13 06:34:58;;;;;;;19.65;9.60;;;15.90;99.90;;;;;;4888938;29;20044;-83
2023/10/13 06:37:26;;;;;;;22.23;10.20;;;16.70;99.90;;;;;;4883218;29;20472;-82
2023/10/13 06:39:56;;;;;;;19.58;9.00;;;16.10;99.90;;;;;;4897806;29;20477;-82
2023/10/13 06:42:28;;;;;;;21.15;10.25;;;15.90;99.90;;;;;;4905282;29;20096;-81
2023/10/13 06:45:00;;;;;;;19.33;9.10;;;16.00;99.90;;;;;;4873291;29;20382;-82
2023/10/13 06:47:27;;;;;;;21.00;9.35;;;16.10;99.90;;;;;;4877881;29;20052;-82
2023/10/13 06:49:54;;;;;;;20.35;9.48;;;16.00;99.90;;;;;;4901546;29;20504;-82
2023/10/13 06:52:22;;;;;;;20.55;9.48;;;16.20;99.90;;;;;;4916911;29;20080;-81
2023/10/13 06:54:53;;;;;;;18.83;9.30;;;16.20;99.90;;;;;;4916254;29;20433;-83
2023/10/13 06:57:22;;;;;;;19.65;9.23;;;16.10;99.90;;;;;;4901120;29;20049;-85
2023/10/13 06:59:48;;;;;;;35.05;20.88;;;16.80;99.90;;;;;;4902409;29;20150;-83
2023/10/13 07:02:23;;;;;;;17.40;8.85;;;16.90;99.90;;;;;;4913606;29;20047;-85
2023/10/13 07:04:55;;;;;;;21.42;9.57;;;16.70;99.90;;;;;;4881621;29;20127;-83
2023/10/13 07:07:23;;;;;;;22.52;13.35;;;16.40;99.90;;;;;;4902640;29;20058;-84
2023/10/13 07:09:55;;;;;;;17.52;8.93;;;16.70;99.90;;;;;;4900472;29;20052;-84
2023/10/13 07:12:26;;;;;;;18.30;9.00;;;16.80;99.90;;;;;;4901349;29;20090;-84
2023/10/13 07:14:52;;;;;;;19.60;10.73;;;16.50;99.90;;;;;;4915486;29;20131;-84
2023/10/13 07:17:32;;;;;;;25.83;17.60;;;16.60;99.90;;;;;;4900303;29;20040;-84
2023/10/13 07:20:23;;;;;;;18.52;11.07;;;16.70;99.90;;;;;;4864616;29;20140;-83
2023/10/13 07:23:05;;;;;;;20.00;9.73;;;17.50;99.90;;;;;;4863497;29;20135;-84
2023/10/13 07:25:40;;;;;;;20.98;12.05;;;16.70;99.90;;;;;;4863989;29;20049;-84
2023/10/13 07:28:21;;;;;;;17.33;8.48;;;16.90;99.90;;;;;;4864504;29;20041;-89
2023/10/13 07:33:22;;;;;;;19.00;8.85;;;17.10;99.90;;;;;;4880663;29;20075;-84
2023/10/13 07:35:59;;;;;;;30.25;20.45;;;16.90;99.90;;;;;;4863526;29;20052;-83
2023/10/13 07:38:30;;;;;;;20.58;10.65;;;17.40;99.90;;;;;;4895051;29;20056;-85
2023/10/13 07:41:07;;;;;;;16.98;7.85;;;16.70;99.90;;;;;;4880582;29;20045;-85
2023/10/13 07:43:44;;;;;;;15.00;6.85;;;16.90;99.90;;;;;;4862204;29;20054;-85
2023/10/13 07:46:31;;;;;;;29.52;15.77;;;16.80;99.90;;;;;;4894626;29;20140;-85
2023/10/13 07:49:08;;;;;;;20.55;10.43;;;17.60;99.90;;;;;;4894699;29;20057;-85
2023/10/13 07:51:48;;;;;;;16.75;7.13;;;17.20;99.90;;;;;;4861365;29;20147;-85
2023/10/13 07:54:32;;;;;;;20.05;10.77;;;17.70;99.90;;;;;;4894670;29;20499;-85
2023/10/13 07:56:58;;;;;;;15.80;7.57;;;16.80;99.90;;;;;;4894001;29;20051;-85
2023/10/13 07:59:24;;;;;;;19.27;10.05;;;16.80;99.90;;;;;;4881235;29;20040;-85
2023/10/13 08:02:12;;;;;;;19.27;8.10;;;17.80;99.90;;;;;;4870960;29;20127;-85
2023/10/13 08:04:44;;;;;;;20.42;12.30;;;17.00;99.90;;;;;;4878293;29;20052;-86
2023/10/13 08:07:13;;;;;;;16.55;7.55;;;17.40;99.90;;;;;;4879463;29;20051;-85
2023/10/13 08:09:57;;;;;;;17.25;7.30;;;16.90;99.90;;;;;;4896735;29;20108;-85
2023/10/13 08:12:23;;;;;;;18.10;7.13;;;17.00;99.90;;;;;;4874263;29;20045;-84
2023/10/13 08:14:48;;;;;;;17.85;7.20;;;16.80;99.90;;;;;;4897051;29;20048;-84
2023/10/13 08:17:14;;;;;;;19.45;7.63;;;17.40;99.90;;;;;;4876488;29;20404;-85
2023/10/13 08:19:41;;;;;;;18.73;6.85;;;16.90;99.90;;;;;;4880812;29;20068;-84
2023/10/13 08:27:34;;;;;;;17.85;7.68;;;17.10;99.90;;;;;;4933876;29;20060;-85
2023/10/13 08:32:54;;;;;;;18.52;7.07;;;17.70;99.90;;;;;;4918320;29;20048;-83
2023/10/13 08:41:28;;;;;;;17.63;7.38;;;17.00;99.90;;;;;;4918063;29;20061;-84
2023/10/13 08:46:24;;;;;;;14.27;7.28;;;17.00;99.90;;;;;;4983068;23;20047;-83
2023/10/13 08:48:52;;;;;;;16.92;7.85;;;17.10;99.90;;;;;;4939637;29;20059;-83
2023/10/13 08:51:31;;;;;;;18.42;7.45;;;17.10;99.90;;;;;;4917581;29;20424;-82
2023/10/13 08:54:18;;;;;;;16.23;8.25;;;17.20;99.90;;;;;;4913686;29;20036;-83
2023/10/13 08:56:54;;;;;;;16.90;7.72;;;17.30;99.90;;;;;;4929870;29;20063;-83
2023/10/13 08:59:33;;;;;;;17.88;8.43;;;17.30;99.90;;;;;;4932813;29;20048;-83
2023/10/13 09:02:15;;;;;;;15.50;8.02;;;17.70;99.90;;;;;;4914341;29;20140;-83
2023/10/13 09:04:44;;;;;;;20.70;8.40;;;17.50;99.90;;;;;;4898651;29;20051;-83
2023/10/13 09:07:25;;;;;;;17.98;8.30;;;17.70;99.90;;;;;;4898747;29;20039;-83
2023/10/13 09:14:58;;;;;;;16.58;7.85;;;17.80;99.90;;;;;;4898889;29;20092;-83
2023/10/13 09:23:28;;;;;;;15.23;6.55;;;18.50;99.90;;;;;;4915916;29;20052;-85
2023/10/13 09:26:08;;;;;;;15.00;7.43;;;18.00;99.90;;;;;;4912445;29;20446;-84
2023/10/13 09:28:36;;;;;;;15.05;7.32;;;18.10;99.90;;;;;;4949958;29;20063;-84
2023/10/13 09:31:07;;;;;;;18.20;6.82;;;18.20;99.90;;;;;;4902710;29;20059;-83
2023/10/13 09:33:35;;;;;;;17.25;7.18;;;18.20;99.90;;;;;;4918190;29;20507;-84
2023/10/13 09:36:06;;;;;;;16.80;6.80;;;18.40;99.90;;;;;;4914744;29;20479;-84
2023/10/13 09:38:40;;;;;;;16.58;6.38;;;18.40;99.90;;;;;;4899130;29;20048;-84
2023/10/13 09:41:20;;;;;;;18.00;6.93;;;18.40;99.90;;;;;;4902066;29;20059;-83
2023/10/13 09:43:46;;;;;;;15.68;6.88;;;18.60;99.90;;;;;;4917300;29;20128;-83
2023/10/13 09:46:35;;;;;;;17.20;6.40;;;18.50;99.90;;;;;;4926136;29;20494;-84
2023/10/13 09:49:22;;;;;;;14.73;6.40;;;19.00;99.90;;;;;;4934503;29;20103;-84
2023/10/13 09:51:48;;;;;;;14.93;6.65;;;18.30;99.90;;;;;;4949996;29;20051;-83
2023/10/13 09:54:26;;;;;;;17.05;6.82;;;18.40;99.90;;;;;;4917573;29;20043;-82
2023/10/13 09:56:57;;;;;;;16.50;6.65;;;18.30;99.90;;;;;;4917598;29;20070;-83
2023/10/13 09:59:34;;;;;;;17.17;6.97;;;18.30;99.90;;;;;;4917968;29;20369;-83
2023/10/13 10:02:08;;;;;;;17.42;7.10;;;18.40;99.90;;;;;;4917561;29;20059;-84
2023/10/13 10:04:55;;;;;;;17.60;6.60;;;18.50;99.90;;;;;;4918239;29;20126;-83
2023/10/13 10:07:28;;;;;;;17.00;7.07;;;18.40;99.90;;;;;;4918176;29;20499;-84
2023/10/13 10:10:09;;;;;;;14.80;6.80;;;18.40;99.90;;;;;;4917591;29;20039;-84
2023/10/13 10:13:16;;;;;;;15.20;6.50;;;18.40;99.90;;;;;;4918269;29;20503;-83
2023/10/13 10:15:47;;;;;;;13.82;5.90;;;18.50;99.90;;;;;;4950135;29;20052;-84
2023/10/13 10:18:25;;;;;;;15.70;6.70;;;19.00;99.90;;;;;;4916975;29;20122;-85
2023/10/13 10:20:52;;;;;;;17.88;6.88;;;18.60;99.90;;;;;;4949886;29;20048;-83
2023/10/13 10:23:39;;;;;;;17.88;6.28;;;19.00;99.90;;;;;;4949395;29;20047;-84
2023/10/13 10:26:29;;;;;;;15.02;6.50;;;18.80;99.90;;;;;;4949486;28;20062;-84
2023/10/13 10:29:00;;;;;;;16.52;5.75;;;18.70;99.90;;;;;;4917722;29;20090;-84
2023/10/13 10:31:36;;;;;;;16.35;6.18;;;18.80;99.90;;;;;;4917894;29;20111;-85
2023/10/13 10:34:18;;;;;;;14.65;6.30;;;18.90;99.90;;;;;;4921128;29;20039;-85
2023/10/13 10:36:47;;;;;;;15.38;6.45;;;19.10;99.90;;;;;;4951313;28;20046;-82
2023/10/13 10:39:13;;;;;;;18.83;6.28;;;18.90;99.90;;;;;;4920224;29;20114;-84
2023/10/13 10:44:22;;;;;;;15.32;7.10;;;19.00;99.90;;;;;;4933340;29;20488;-82
2023/10/13 10:46:57;;;;;;;14.40;6.28;;;19.10;99.90;;;;;;4900684;29;20488;-83
2023/10/13 10:49:29;;;;;;;14.63;6.18;;;19.30;99.90;;;;;;4899742;29;20042;-82
2023/10/13 10:52:01;;;;;;;16.25;6.38;;;19.40;99.90;;;;;;4902191;29;20051;-82
2023/10/13 10:54:31;;;;;;;16.10;6.07;;;19.80;99.90;;;;;;4900721;29;20505;-82
2023/10/13 10:57:10;;;;;;;16.95;6.07;;;19.40;99.90;;;;;;4902116;29;20044;-82
2023/10/13 10:59:37;;;;;;;17.05;6.00;;;19.40;99.90;;;;;;4901834;29;20055;-83
2023/10/13 11:02:03;;;;;;;15.10;5.90;;;19.40;99.90;;;;;;4901819;29;20488;-82
2023/10/13 11:04:33;;;;;;;15.68;6.43;;;19.40;99.90;;;;;;4917587;29;20043;-82
2023/10/13 11:06:59;;;;;;;15.68;6.35;;;19.40;99.90;;;;;;4926776;29;20040;-82
2023/10/13 11:11:53;;;;;;;19.00;6.38;;;19.40;99.90;;;;;;4901311;29;20393;-83
2023/10/13 11:14:27;;;;;;;14.38;5.97;;;19.50;99.90;;;;;;4928528;29;20044;-83
2023/10/13 11:16:54;;;;;;;18.58;6.30;;;19.40;99.90;;;;;;4900376;29;20051;-83
2023/10/13 11:19:25;;;;;;;13.73;5.78;;;19.50;99.90;;;;;;4900858;29;20048;-82
2023/10/13 11:21:53;;;;;;;15.43;6.22;;;19.50;99.90;;;;;;4897722;29;20076;-82
2023/10/13 11:24:21;;;;;;;16.63;7.05;;;19.50;99.90;;;;;;4924195;29;20182;-82
2023/10/13 11:26:52;;;;;;;15.52;5.50;;;19.50;99.90;;;;;;4894545;29;20052;-82
2023/10/13 11:29:30;;;;;;;16.25;6.95;;;19.50;99.90;;;;;;4917138;29;20504;-82
2023/10/13 11:32:00;;;;;;;17.98;6.50;;;19.80;99.90;;;;;;4900898;29;20056;-82
2023/10/13 11:34:30;;;;;;;18.17;6.50;;;19.60;99.90;;;;;;4899303;29;20130;-81
2023/10/13 11:36:58;;;;;;;15.38;6.20;;;19.70;99.90;;;;;;4918142;29;20044;-81
2023/10/13 11:39:30;;;;;;;13.80;6.10;;;19.70;99.90;;;;;;4900541;29;20063;-82
2023/10/13 11:41:55;;;;;;;15.57;6.28;;;19.80;99.90;;;;;;4898345;29;20066;-82
2023/10/13 11:44:24;;;;;;;17.13;5.90;;;19.80;99.90;;;;;;4901037;29;20492;-82
2023/10/13 11:46:56;;;;;;;16.40;6.15;;;20.00;99.90;;;;;;4908850;29;20040;-81
2023/10/13 11:52:08;;;;;;;23.65;7.85;;;20.20;99.90;;;;;;4922815;29;20048;-82
2023/10/13 11:54:36;;;;;;;18.58;5.82;;;20.20;99.90;;;;;;4938780;29;20040;-81
2023/10/13 11:57:02;;;;;;;17.13;6.10;;;20.20;99.90;;;;;;4940138;29;20040;-81
2023/10/13 11:59:28;;;;;;;18.33;6.32;;;20.30;99.90;;;;;;4908022;29;20043;-81
2023/10/13 12:04:58;;;;;;;16.95;6.60;;;20.20;99.90;;;;;;4938934;29;20055;-82
2023/10/13 12:07:40;;;;;;;16.75;5.82;;;20.20;99.90;;;;;;4939901;29;20054;-82
2023/10/13 12:10:06;;;;;;;17.45;7.15;;;20.20;99.90;;;;;;4940867;29;20059;-81
2023/10/13 12:12:40;;;;;;;14.85;5.93;;;20.20;99.90;;;;;;4938038;29;20040;-83
2023/10/13 12:15:09;;;;;;;18.98;6.07;;;20.20;99.90;;;;;;4908339;29;20099;-82
2023/10/13 12:17:36;;;;;;;16.05;6.07;;;20.20;99.90;;;;;;4909350;29;20555;-82
2023/10/13 12:20:05;;;;;;;20.50;6.05;;;20.30;99.90;;;;;;4909052;29;20039;-82
2023/10/13 12:22:42;;;;;;;19.10;5.90;;;20.20;99.90;;;;;;4905926;29;20051;-83
2023/10/13 12:26:19;;;;;;;15.82;6.55;;;20.10;99.90;;;;;;4907411;29;20067;-82
2023/10/13 12:28:23;;;;;;;17.58;6.55;;;20.10;99.90;;;;;;4936105;29;20052;-83
2023/10/13 12:30:49;;;;;;;18.25;7.10;;;20.20;99.90;;;;;;4910047;29;20543;-83
2023/10/13 12:33:23;;;;;;;15.38;6.35;;;20.20;99.90;;;;;;4908846;29;20437;-83
2023/10/13 12:48:55;;;;;;;17.77;6.45;;;20.20;99.90;;;;;;4904533;29;20079;-85
2023/10/13 12:51:40;;;;;;;20.38;6.38;;;20.30;99.90;;;;;;4900328;29;20054;-83
2023/10/13 12:54:19;;;;;;;17.23;6.10;;;20.40;99.90;;;;;;4898603;29;20587;-84
2023/10/13 12:56:45;;;;;;;15.82;6.32;;;20.40;99.90;;;;;;4897862;29;20046;-84
2023/10/13 12:59:13;;;;;;;14.70;6.38;;;20.50;99.90;;;;;;4918800;29;20039;-85
2023/10/13 13:01:42;;;;;;;15.68;6.25;;;20.50;99.90;;;;;;4899897;29;20052;-87
2023/10/13 13:04:18;;;;;;;17.67;7.30;;;20.60;99.90;;;;;;4899258;29;20052;-84
2023/10/13 13:06:59;;;;;;;18.38;7.15;;;20.60;99.90;;;;;;4891444;29;20052;-83
2023/10/13 13:09:27;;;;;;;16.95;7.82;;;20.60;99.90;;;;;;4891222;29;20043;-83
2023/10/13 13:11:57;;;;;;;22.23;8.48;;;20.50;99.90;;;;;;4889598;29;20209;-83
2023/10/13 13:14:29;;;;;;;14.73;6.68;;;20.50;99.90;;;;;;4889389;29;20052;-82
2023/10/13 13:17:07;;;;;;;17.48;7.25;;;20.50;99.90;;;;;;4882431;29;20051;-83
2023/10/13 13:19:39;;;;;;;20.45;7.00;;;20.50;99.90;;;;;;4880609;29;20048;-83
2023/10/13 13:22:12;;;;;;;17.75;8.20;;;20.50;99.90;;;;;;4880007;29;20049;-83
2023/10/13 13:24:45;;;;;;;16.85;6.55;;;20.60;99.90;;;;;;4880820;29;20049;-84
2023/10/13 13:27:19;;;;;;;17.65;6.55;;;20.60;99.90;;;;;;4879968;29;20452;-83
2023/10/13 13:29:45;;;;;;;20.02;7.13;;;20.70;99.90;;;;;;4899465;29;20040;-83
2023/10/13 13:32:18;;;;;;;23.42;7.97;;;20.70;99.90;;;;;;4898403;29;20044;-83
2023/10/13 13:34:54;;;;;;;17.20;7.30;;;20.70;99.90;;;;;;4898454;29;20457;-83
2023/10/13 13:37:29;;;;;;;17.75;6.80;;;20.70;99.90;;;;;;4898337;29;20060;-83
2023/10/13 13:39:54;;;;;;;24.25;10.90;;;20.70;99.90;;;;;;4899290;29;20052;-82
2023/10/13 13:42:20;;;;;;;21.65;8.25;;;20.70;99.90;;;;;;4897787;29;20040;-82
2023/10/13 13:45:01;;;;;;;17.75;8.60;;;20.70;99.90;;;;;;4906464;29;20415;-82
2023/10/13 13:47:28;;;;;;;18.48;7.00;;;20.90;99.90;;;;;;4917873;29;20126;-82
2023/10/13 13:50:05;;;;;;;16.35;7.68;;;20.80;99.90;;;;;;4917471;29;20087;-83
2023/10/13 13:52:45;;;;;;;16.50;6.97;;;20.80;99.90;;;;;;4918032;29;20503;-83
2023/10/13 13:55:24;;;;;;;16.50;7.38;;;20.80;99.90;;;;;;4914432;29;20056;-82
2023/10/13 13:57:50;;;;;;;19.70;7.20;;;20.60;99.90;;;;;;4917332;29;20411;-83
2023/10/13 14:00:37;;;;;;;18.60;7.28;;;20.50;99.90;;;;;;4917062;29;20499;-83
2023/10/13 14:03:32;;;;;;;20.42;7.03;;;20.30;99.90;;;;;;4942628;29;20059;-83
2023/10/13 14:06:01;;;;;;;13.95;6.75;;;20.20;99.90;;;;;;4917980;29;21437;-82
2023/10/13 14:08:29;;;;;;;15.80;6.70;;;20.10;99.90;;;;;;4918432;29;20123;-83
2023/10/13 14:11:13;;;;;;;17.33;6.60;;;20.10;99.90;;;;;;4920819;29;20059;-83
2023/10/13 14:13:49;;;;;;;17.48;7.63;;;20.00;99.90;;;;;;4946872;29;20075;-83
2023/10/13 14:16:22;;;;;;;18.92;7.55;;;19.90;99.90;;;;;;4920470;29;20075;-83
2023/10/13 14:18:50;;;;;;;17.05;6.90;;;19.80;99.90;;;;;;4920693;29;20460;-82
2023/10/13 14:21:17;;;;;;;17.08;7.70;;;19.70;99.90;;;;;;4921199;29;20079;-84
2023/10/13 14:23:53;;;;;;;16.92;7.60;;;19.70;99.90;;;;;;4920252;29;20050;-85
2023/10/13 14:26:21;;;;;;;17.23;7.10;;;19.60;99.90;;;;;;4921167;29;20054;-84
2023/10/13 14:29:08;;;;;;;17.35;7.57;;;19.40;99.90;;;;;;4937191;29;20050;-84
2023/10/13 14:31:39;;;;;;;16.02;7.13;;;19.60;99.90;;;;;;4921008;29;20044;-84
2023/10/13 14:34:07;;;;;;;17.88;6.90;;;19.30;99.90;;;;;;4921458;29;20099;-83
2023/10/13 14:36:36;;;;;;;19.92;7.30;;;19.50;99.90;;;;;;4921670;29;20047;-83
2023/10/13 14:39:20;;;;;;;17.35;7.72;;;19.50;99.90;;;;;;4920699;29;20040;-84
2023/10/13 14:41:47;;;;;;;18.77;8.15;;;19.40;99.90;;;;;;4920978;29;20411;-84
2023/10/13 14:44:14;;;;;;;18.27;7.97;;;19.40;99.90;;;;;;4918116;29;20063;-83
2023/10/13 14:46:39;;;;;;;17.35;7.60;;;19.40;99.90;;;;;;4901347;29;20484;-83
2023/10/13 14:49:06;;;;;;;22.00;7.50;;;19.40;99.90;;;;;;4894869;29;20055;-83
2023/10/13 14:51:32;;;;;;;18.30;7.55;;;19.50;99.90;;;;;;4899125;29;20591;-86
2023/10/13 14:54:00;;;;;;;18.67;7.57;;;19.30;99.90;;;;;;4907050;29;20076;-83
2023/10/13 14:56:28;;;;;;;19.95;8.10;;;19.40;99.90;;;;;;4903216;29;20048;-82
2023/10/13 14:58:54;;;;;;;17.40;7.18;;;19.10;99.90;;;;;;4901053;29;20055;-83
2023/10/13 15:01:26;;;;;;;20.13;8.57;;;18.90;99.90;;;;;;4904060;24;20064;-82
2023/10/13 15:03:56;;;;;;;21.60;8.73;;;19.00;99.90;;;;;;4890475;29;20481;-81
2023/10/13 15:06:28;;;;;;;18.10;8.23;;;18.70;99.90;;;;;;4929570;23;20329;-81
2023/10/13 15:09:10;;;;;;;23.63;8.43;;;18.50;99.90;;;;;;4898569;29;20055;-82
2023/10/13 15:11:36;;;;;;;20.25;8.55;;;18.40;99.90;;;;;;4900440;29;20040;-83
2023/10/13 15:14:19;;;;;;;18.35;8.30;;;18.30;99.90;;;;;;4900959;29;20496;-84
2023/10/13 15:16:48;;;;;;;19.67;8.73;;;18.10;99.90;;;;;;4902139;29;20048;-85
2023/10/13 15:19:13;;;;;;;17.08;8.48;;;18.10;99.90;;;;;;4899874;29;20437;-85
2023/10/13 15:21:41;;;;;;;21.77;8.70;;;18.20;99.90;;;;;;4901074;29;20084;-85
2023/10/13 15:24:25;;;;;;;19.85;8.82;;;18.00;99.90;;;;;;4899023;29;20429;-86
2023/10/13 15:26:56;;;;;;;21.00;8.90;;;18.00;99.90;;;;;;4901407;29;20056;-84
2023/10/13 15:29:26;;;;;;;20.98;9.02;;;18.50;99.90;;;;;;4901334;29;20051;-85
2023/10/13 15:34:26;;;;;;;23.13;12.00;;;18.00;99.90;;;;;;4931644;29;20052;-84
2023/10/13 15:36:52;;;;;;;21.48;9.77;;;18.20;99.90;;;;;;4932814;29;20051;-83
2023/10/13 15:39:23;;;;;;;30.30;19.42;;;17.90;99.90;;;;;;4919599;29;20488;-83
2023/10/13 15:42:14;;;;;;;23.02;12.38;;;18.00;99.90;;;;;;4915889;29;20056;-82
2023/10/13 15:44:43;;;;;;;28.88;11.73;;;17.70;99.90;;;;;;4901539;29;20115;-84
2023/10/13 15:47:12;;;;;;;27.60;15.27;;;17.80;99.90;;;;;;4901199;29;20052;-81
2023/10/13 15:49:46;;;;;;;19.00;8.85;;;17.70;99.90;;;;;;4895956;29;20059;-82
2023/10/13 15:52:13;;;;;;;19.77;8.85;;;18.00;99.90;;;;;;4900131;29;20104;-83
2023/10/13 15:54:57;;;;;;;27.02;14.32;;;17.70;99.90;;;;;;4899940;29;20060;-81
2023/10/13 15:57:23;;;;;;;;;;;17.70;99.90;;;;;;4900779;29;20040;-82
2023/10/13 16:00:22;;;;;;;18.33;9.15;;;17.70;99.90;;;;;;4899704;29;19982;-82
2023/10/13 16:02:56;;;;;;;20.60;9.90;;;17.70;99.90;;;;;;4914224;29;20485;-82
2023/10/13 16:05:34;;;;;;;24.17;14.52;;;17.90;99.90;;;;;;4924227;29;20139;-82